createdAt,value
2017-01-18T00:00:20.038Z,86.11
2017-01-18T00:00:48.335Z,85.93
2017-01-18T00:01:16.654Z,86.21
2017-01-18T00:01:44.943Z,86.31
2017-01-18T00:02:13.107Z,85.93
2017-01-18T00:02:41.386Z,86.41
2017-01-18T00:03:09.551Z,86.41
2017-01-18T00:03:37.763Z,85.93
2017-01-18T00:04:05.950Z,85.93
2017-01-18T00:04:34.105Z,86.11
2017-01-18T00:05:02.310Z,86.02
2017-01-18T00:05:30.488Z,86.31
2017-01-18T00:05:58.741Z,86.41
2017-01-18T00:06:26.894Z,86.21
2017-01-18T00:06:55.056Z,86.31
2017-01-18T00:07:37.710Z,86.41
2017-01-18T00:08:05.880Z,86.02
2017-01-18T00:08:34.038Z,86.02
2017-01-18T00:09:02.308Z,86.51
2017-01-18T00:09:30.556Z,86.31
2017-01-18T00:09:58.826Z,86.51
2017-01-18T00:10:27.132Z,86.51
2017-01-18T00:10:55.390Z,86.6
2017-01-18T00:11:23.603Z,86.69
2017-01-18T00:11:51.762Z,86.31
2017-01-18T00:12:19.935Z,86.51
2017-01-18T00:12:48.135Z,87.18
2017-01-18T00:13:16.399Z,86.31
2017-01-18T00:13:44.595Z,86.31
2017-01-18T00:14:12.871Z,86.6
2017-01-18T00:14:41.097Z,86.89
2017-01-18T00:15:09.250Z,86.51
2017-01-18T00:15:37.432Z,87.08
2017-01-18T00:16:05.606Z,87.18
2017-01-18T00:16:33.779Z,87.08
2017-01-18T00:17:01.966Z,87.08
2017-01-18T00:17:30.171Z,87.37
2017-01-18T00:17:58.355Z,87.37
2017-01-18T00:18:26.609Z,86.31
2017-01-18T00:18:54.795Z,87.18
2017-01-18T00:19:23.055Z,86.51
2017-01-18T00:19:51.231Z,86.69
2017-01-18T00:20:19.385Z,87.66
2017-01-18T00:20:47.680Z,87.08
2017-01-18T00:21:15.891Z,86.99
2017-01-18T00:21:44.129Z,87.18
2017-01-18T00:22:12.356Z,86.99
2017-01-18T00:22:40.501Z,87.37
2017-01-18T00:23:08.686Z,86.89
2017-01-18T00:23:37.116Z,87.27
2017-01-18T00:24:05.739Z,86.99
2017-01-18T00:24:33.905Z,87.18
2017-01-18T00:25:02.059Z,87.66
2017-01-18T00:25:30.226Z,86.31
2017-01-18T00:25:58.456Z,86.31
2017-01-18T00:26:26.619Z,86.31
2017-01-18T00:26:54.799Z,86.41
2017-01-18T00:27:22.984Z,86.79
2017-01-18T00:27:51.174Z,86.31
2017-01-18T00:28:19.352Z,86.21
2017-01-18T00:28:47.527Z,86.6
2017-01-18T00:29:15.729Z,86.11
2017-01-18T00:29:43.901Z,86.35
2017-01-18T00:30:12.077Z,86.65
2017-01-18T00:30:40.232Z,86.35
2017-01-18T00:31:08.434Z,85.77
2017-01-18T00:31:36.606Z,86.35
2017-01-18T00:32:04.752Z,86.55
2017-01-18T00:32:32.933Z,85.97
2017-01-18T00:33:01.119Z,85.87
2017-01-18T00:33:29.327Z,85.48
2017-01-18T00:33:57.477Z,85.58
2017-01-18T00:34:25.650Z,85.58
2017-01-18T00:34:53.929Z,85
2017-01-18T00:35:22.078Z,85.29
2017-01-18T00:35:50.239Z,85
2017-01-18T00:36:18.421Z,84.9
2017-01-18T00:36:46.598Z,85.1
2017-01-18T00:37:14.782Z,85.1
2017-01-18T00:37:43.045Z,85.48
2017-01-18T00:38:11.219Z,85.39
2017-01-18T00:38:39.392Z,85.19
2017-01-18T00:39:07.569Z,85.58
2017-01-18T00:39:35.756Z,86.06
2017-01-18T00:40:04.057Z,86.25
2017-01-18T00:40:32.239Z,85.87
2017-01-18T00:41:00.407Z,85.97
2017-01-18T00:41:28.697Z,85.58
2017-01-18T00:41:56.882Z,85.58
2017-01-18T00:42:25.035Z,85.97
2017-01-18T00:42:53.214Z,85.87
2017-01-18T00:43:21.398Z,85.68
2017-01-18T00:43:49.571Z,85.42
2017-01-18T00:44:17.750Z,85.33
2017-01-18T00:44:45.897Z,85.29
2017-01-18T00:45:14.080Z,85.19
2017-01-18T00:45:42.268Z,85.24
2017-01-18T00:46:10.643Z,85.48
2017-01-18T00:46:38.790Z,85.24
2017-01-18T00:47:06.972Z,85.24
2017-01-18T00:47:35.168Z,84.66
2017-01-18T00:48:03.447Z,84.52
2017-01-18T00:48:31.620Z,84.52
2017-01-18T00:48:59.787Z,84.75
2017-01-18T00:49:27.987Z,84.42
2017-01-18T00:49:56.163Z,84.08
2017-01-18T00:50:24.333Z,84.75
2017-01-18T00:50:52.530Z,83.98
2017-01-18T00:51:20.711Z,84.75
2017-01-18T00:51:48.865Z,84.66
2017-01-18T00:52:17.033Z,84.66
2017-01-18T00:52:45.289Z,84.46
2017-01-18T00:53:13.453Z,84.46
2017-01-18T00:53:41.603Z,84.66
2017-01-18T00:54:09.758Z,84.94
2017-01-18T00:54:37.943Z,84.56
2017-01-18T00:55:06.094Z,84.94
2017-01-18T00:55:34.282Z,84.22
2017-01-18T00:56:02.451Z,84.9
2017-01-18T00:56:30.597Z,84.42
2017-01-18T00:56:58.776Z,84.61
2017-01-18T00:57:26.936Z,85.33
2017-01-18T00:57:55.074Z,85.39
2017-01-18T00:58:23.251Z,85.91
2017-01-18T00:58:51.415Z,85.82
2017-01-18T00:59:19.598Z,86.1
2017-01-18T00:59:47.761Z,86.49
2017-01-18T01:00:15.947Z,86.3
2017-01-18T01:00:44.077Z,86.4
2017-01-18T01:01:12.355Z,86.49
2017-01-18T01:01:41.083Z,86.35
2017-01-18T01:02:09.242Z,86.1
2017-01-18T01:02:37.393Z,86.4
2017-01-18T01:03:05.564Z,85.91
2017-01-18T01:03:33.825Z,86.01
2017-01-18T01:04:02.025Z,84.84
2017-01-18T01:04:30.176Z,85.14
2017-01-18T01:04:58.446Z,85.33
2017-01-18T01:05:26.650Z,84.94
2017-01-18T01:05:54.813Z,85.33
2017-01-18T01:06:22.983Z,85.42
2017-01-18T01:06:51.151Z,85.04
2017-01-18T01:07:19.319Z,85.82
2017-01-18T01:07:47.613Z,85.24
2017-01-18T01:08:15.777Z,84.84
2017-01-18T01:08:43.957Z,85.42
2017-01-18T01:09:12.136Z,84.56
2017-01-18T01:09:40.304Z,84.94
2017-01-18T01:10:08.448Z,85.42
2017-01-18T01:10:36.639Z,85.42
2017-01-18T01:11:04.902Z,85.62
2017-01-18T01:11:33.069Z,86.1
2017-01-18T01:12:01.392Z,86.3
2017-01-18T01:12:29.608Z,86.01
2017-01-18T01:12:57.795Z,86.1
2017-01-18T01:13:26.002Z,86.3
2017-01-18T01:13:54.229Z,85.91
2017-01-18T01:14:22.412Z,85.91
2017-01-18T01:14:50.579Z,85.72
2017-01-18T01:15:18.751Z,85.82
2017-01-18T01:15:46.957Z,85.72
2017-01-18T01:16:15.127Z,86.01
2017-01-18T01:16:43.307Z,86.1
2017-01-18T01:17:11.459Z,85.52
2017-01-18T01:17:39.635Z,85.42
2017-01-18T01:18:07.831Z,85.52
2017-01-18T01:18:35.991Z,85.52
2017-01-18T01:19:04.146Z,85.24
2017-01-18T01:19:32.304Z,86.01
2017-01-18T01:20:00.481Z,85.52
2017-01-18T01:20:28.653Z,85.68
2017-01-18T01:20:56.908Z,85.68
2017-01-18T01:21:25.087Z,86.88
2017-01-18T01:21:53.252Z,87.46
2017-01-18T01:22:21.419Z,87.65
2017-01-18T01:22:49.582Z,88.48
2017-01-18T01:23:17.777Z,88.23
2017-01-18T01:23:46.045Z,88.67
2017-01-18T01:24:14.243Z,88.53
2017-01-18T01:24:42.407Z,88.48
2017-01-18T01:25:10.561Z,88.13
2017-01-18T01:25:38.732Z,88.39
2017-01-18T01:26:06.882Z,88.48
2017-01-18T01:26:35.089Z,88.77
2017-01-18T01:27:03.256Z,88.67
2017-01-18T01:27:31.433Z,88.19
2017-01-18T01:27:59.701Z,88.09
2017-01-18T01:28:27.849Z,88.29
2017-01-18T01:28:56.006Z,87.71
2017-01-18T01:29:24.152Z,87.61
2017-01-18T01:29:52.321Z,87.32
2017-01-18T01:30:20.484Z,87.23
2017-01-18T01:30:48.619Z,87.23
2017-01-18T01:31:16.801Z,86.93
2017-01-18T01:31:44.971Z,86.45
2017-01-18T01:32:13.138Z,86.35
2017-01-18T01:32:41.306Z,87.32
2017-01-18T01:33:09.456Z,87.23
2017-01-18T01:33:37.628Z,87.75
2017-01-18T01:34:05.795Z,87.41
2017-01-18T01:34:33.981Z,87.32
2017-01-18T01:35:02.346Z,87.99
2017-01-18T01:35:30.573Z,88.77
2017-01-18T01:35:58.766Z,88.77
2017-01-18T01:36:26.962Z,89.25
2017-01-18T01:36:55.160Z,89.15
2017-01-18T01:37:23.331Z,88.67
2017-01-18T01:37:51.509Z,88.09
2017-01-18T01:38:19.790Z,89.45
2017-01-18T01:38:47.974Z,90.41
2017-01-18T01:39:16.147Z,90.12
2017-01-18T01:39:44.304Z,90.37
2017-01-18T01:40:12.553Z,90.75
2017-01-18T01:40:40.718Z,91.53
2017-01-18T01:41:08.892Z,92.49
2017-01-18T01:41:37.052Z,91.58
2017-01-18T01:42:05.328Z,90.42
2017-01-18T01:42:33.491Z,89.17
2017-01-18T01:43:01.646Z,88.35
2017-01-18T01:43:29.822Z,89.61
2017-01-18T01:43:58.018Z,90.86
2017-01-18T01:44:26.170Z,91.78
2017-01-18T01:44:54.387Z,91.2
2017-01-18T01:45:22.564Z,90.62
2017-01-18T01:45:50.775Z,90.72
2017-01-18T01:46:18.979Z,90.77
2017-01-18T01:46:47.148Z,91.83
2017-01-18T01:47:15.279Z,91.93
2017-01-18T01:47:43.440Z,92.8
2017-01-18T01:48:11.624Z,91.3
2017-01-18T01:48:39.807Z,92.08
2017-01-18T01:49:07.972Z,92.75
2017-01-18T01:49:36.160Z,93.81
2017-01-18T01:50:04.446Z,94.2
2017-01-18T01:50:32.632Z,94.87
2017-01-18T01:51:00.896Z,95.79
2017-01-18T01:51:29.084Z,95.5
2017-01-18T01:51:57.275Z,95.4
2017-01-18T01:52:25.474Z,96.17
2017-01-18T01:52:53.731Z,96.08
2017-01-18T01:53:21.890Z,95.89
2017-01-18T01:53:50.069Z,96.27
2017-01-18T01:54:18.270Z,95.5
2017-01-18T01:54:46.497Z,95.89
2017-01-18T01:55:15.009Z,96.89
2017-01-18T01:55:43.189Z,96.32
2017-01-18T01:56:11.354Z,96.51
2017-01-18T01:56:39.514Z,96.61
2017-01-18T01:57:07.703Z,96.03
2017-01-18T01:57:35.860Z,95.45
2017-01-18T01:58:04.044Z,95.64
2017-01-18T01:58:32.243Z,96.42
2017-01-18T01:59:00.463Z,95.84
2017-01-18T01:59:28.693Z,95.94
2017-01-18T01:59:56.949Z,95.84
2017-01-18T02:00:25.315Z,96.03
2017-01-18T02:00:53.562Z,96.51
2017-01-18T02:01:21.827Z,95.84
2017-01-18T02:01:50.093Z,95.55
2017-01-18T02:02:18.277Z,94.97
2017-01-18T02:02:46.470Z,95.07
2017-01-18T02:03:14.715Z,94.68
2017-01-18T02:03:42.995Z,95.07
2017-01-18T02:04:11.254Z,94.68
2017-01-18T02:04:39.415Z,94.59
2017-01-18T02:05:07.616Z,95.07
2017-01-18T02:05:35.792Z,95.36
2017-01-18T02:06:03.971Z,95.64
2017-01-18T02:06:32.132Z,95.45
2017-01-18T02:07:00.433Z,95.45
2017-01-18T02:07:28.594Z,95.26
2017-01-18T02:07:56.858Z,94.78
2017-01-18T02:08:25.038Z,95.45
2017-01-18T02:08:53.199Z,95.16
2017-01-18T02:09:21.393Z,95.45
2017-01-18T02:09:49.578Z,95.94
2017-01-18T02:10:17.731Z,95.84
2017-01-18T02:10:46.006Z,96.03
2017-01-18T02:11:14.204Z,95.84
2017-01-18T02:11:42.384Z,95.26
2017-01-18T02:12:10.559Z,95.64
2017-01-18T02:12:38.702Z,95.45
2017-01-18T02:13:06.894Z,95.45
2017-01-18T02:13:35.078Z,95.74
2017-01-18T02:14:03.223Z,95.84
2017-01-18T02:14:31.382Z,96.03
2017-01-18T02:14:59.539Z,95.55
2017-01-18T02:15:27.739Z,95.84
2017-01-18T02:15:55.909Z,95.5
2017-01-18T02:16:24.057Z,95.5
2017-01-18T02:16:52.227Z,95.45
2017-01-18T02:17:20.386Z,95.4
2017-01-18T02:17:48.588Z,95.59
2017-01-18T02:18:16.740Z,95.69
2017-01-18T02:18:44.939Z,95.02
2017-01-18T02:19:13.110Z,95.21
2017-01-18T02:19:41.255Z,94.92
2017-01-18T02:20:09.430Z,94.82
2017-01-18T02:20:37.695Z,94.54
2017-01-18T02:21:05.883Z,94.24
2017-01-18T02:21:34.049Z,94.54
2017-01-18T02:22:02.209Z,94.82
2017-01-18T02:22:30.382Z,94.63
2017-01-18T02:22:58.623Z,94.63
2017-01-18T02:23:26.788Z,94.24
2017-01-18T02:23:54.998Z,94.24
2017-01-18T02:24:23.185Z,94.24
2017-01-18T02:24:51.467Z,94.34
2017-01-18T02:25:19.643Z,94.34
2017-01-18T02:25:47.896Z,94.24
2017-01-18T02:26:16.086Z,93.38
2017-01-18T02:26:44.491Z,92.71
2017-01-18T02:27:12.737Z,92.8
2017-01-18T02:27:40.885Z,92.71
2017-01-18T02:28:09.052Z,92.99
2017-01-18T02:28:37.258Z,93.09
2017-01-18T02:29:05.435Z,93.09
2017-01-18T02:29:33.675Z,93.86
2017-01-18T02:30:01.970Z,94.39
2017-01-18T02:30:30.146Z,94.59
2017-01-18T02:30:59.727Z,94.54
2017-01-18T02:31:27.925Z,94.87
2017-01-18T02:31:56.120Z,95.16
2017-01-18T02:32:24.393Z,94.78
2017-01-18T02:32:52.567Z,94.68
2017-01-18T02:33:20.815Z,94.97
2017-01-18T02:33:48.978Z,95.45
2017-01-18T02:34:17.137Z,95.64
2017-01-18T02:34:45.331Z,95.74
2017-01-18T02:35:13.641Z,95.55
2017-01-18T02:35:41.792Z,94.49
2017-01-18T02:36:10.001Z,94.59
2017-01-18T02:36:38.162Z,94.59
2017-01-18T02:37:06.388Z,93.91
2017-01-18T02:37:34.591Z,94.68
2017-01-18T02:38:02.784Z,94.78
2017-01-18T02:38:31.084Z,94.49
2017-01-18T02:38:59.241Z,93.81
2017-01-18T02:39:27.419Z,94.59
2017-01-18T02:39:55.576Z,95.07
2017-01-18T02:40:23.728Z,94.87
2017-01-18T02:40:51.921Z,94.87
2017-01-18T02:41:20.091Z,95.07
2017-01-18T02:41:48.249Z,95.07
2017-01-18T02:42:16.415Z,95.26
2017-01-18T02:42:44.631Z,94.68
2017-01-18T02:43:12.872Z,94.97
2017-01-18T02:43:41.045Z,94.97
2017-01-18T02:44:09.223Z,94.87
2017-01-18T02:44:37.381Z,94.78
2017-01-18T02:45:05.514Z,95.26
2017-01-18T02:45:33.690Z,94.78
2017-01-18T02:46:01.867Z,95.26
2017-01-18T02:46:30.055Z,94.97
2017-01-18T02:46:58.237Z,94.87
2017-01-18T02:47:26.405Z,94.97
2017-01-18T02:47:54.605Z,94.97
2017-01-18T02:48:22.801Z,95.36
2017-01-18T02:48:51.016Z,95.64
2017-01-18T02:49:19.190Z,95.16
2017-01-18T02:49:47.344Z,95.94
2017-01-18T02:50:15.514Z,95.45
2017-01-18T02:50:43.741Z,95.45
2017-01-18T02:51:11.914Z,95.64
2017-01-18T02:51:40.107Z,95.55
2017-01-18T02:52:08.313Z,95.07
2017-01-18T02:52:36.508Z,95.36
2017-01-18T02:53:04.791Z,95.45
2017-01-18T02:53:32.962Z,95.64
2017-01-18T02:54:01.149Z,96.03
2017-01-18T02:54:29.298Z,95.94
2017-01-18T02:54:57.516Z,96.27
2017-01-18T02:55:25.690Z,96.03
2017-01-18T02:55:53.828Z,95.5
2017-01-18T02:56:22.097Z,95.5
2017-01-18T02:56:50.257Z,95.79
2017-01-18T02:57:18.430Z,95.69
2017-01-18T02:57:46.611Z,95.59
2017-01-18T02:58:14.794Z,94.92
2017-01-18T02:58:43.006Z,95.02
2017-01-18T02:59:11.196Z,94.82
2017-01-18T02:59:39.366Z,95.11
2017-01-18T03:00:07.633Z,95.69
2017-01-18T03:00:35.782Z,95.59
2017-01-18T03:01:03.961Z,95.59
2017-01-18T03:01:32.142Z,95.59
2017-01-18T03:02:00.293Z,95.02
2017-01-18T03:02:28.553Z,94.82
2017-01-18T03:02:56.985Z,95.21
2017-01-18T03:03:25.179Z,95.5
2017-01-18T03:03:53.359Z,95.4
2017-01-18T03:04:21.511Z,95.4
2017-01-18T03:04:49.754Z,95.69
2017-01-18T03:05:17.924Z,95.69
2017-01-18T03:05:46.142Z,95.79
2017-01-18T03:06:14.343Z,95.89
2017-01-18T03:06:42.536Z,95.69
2017-01-18T03:07:10.692Z,95.59
2017-01-18T03:07:38.847Z,95.69
2017-01-18T03:08:07.021Z,95.79
2017-01-18T03:08:35.231Z,95.31
2017-01-18T03:09:03.423Z,95.5
2017-01-18T03:09:31.599Z,95.5
2017-01-18T03:09:59.767Z,95.21
2017-01-18T03:10:27.990Z,95.79
2017-01-18T03:10:56.172Z,95.5
2017-01-18T03:11:24.366Z,95.11
2017-01-18T03:11:52.533Z,95.59
2017-01-18T03:12:20.722Z,95.5
2017-01-18T03:12:48.929Z,95.59
2017-01-18T03:13:17.092Z,95.5
2017-01-18T03:13:45.359Z,95.4
2017-01-18T03:14:13.543Z,95.5
2017-01-18T03:14:41.792Z,95.89
2017-01-18T03:15:09.967Z,95.5
2017-01-18T03:15:38.209Z,95.89
2017-01-18T03:16:06.375Z,95.89
2017-01-18T03:16:34.633Z,95.89
2017-01-18T03:17:02.813Z,95.98
2017-01-18T03:17:30.981Z,96.94
2017-01-18T03:17:59.142Z,96.85
2017-01-18T03:18:27.412Z,96.46
2017-01-18T03:18:55.608Z,96.75
2017-01-18T03:19:23.911Z,97.04
2017-01-18T03:19:52.134Z,96.89
2017-01-18T03:20:20.304Z,96.75
2017-01-18T03:20:48.606Z,96.56
2017-01-18T03:21:16.767Z,96.85
2017-01-18T03:21:45.018Z,97.04
2017-01-18T03:22:13.166Z,97.33
2017-01-18T03:22:41.335Z,97.14
2017-01-18T03:23:09.604Z,96.94
2017-01-18T03:23:37.752Z,97.52
2017-01-18T03:24:05.920Z,96.75
2017-01-18T03:24:34.074Z,96.85
2017-01-18T03:25:02.212Z,97.24
2017-01-18T03:25:30.399Z,97.81
2017-01-18T03:25:58.575Z,97.91
2017-01-18T03:26:26.774Z,96.94
2017-01-18T03:26:54.985Z,96.46
2017-01-18T03:27:23.144Z,96.37
2017-01-18T03:27:51.350Z,96.66
2017-01-18T03:28:19.537Z,97.42
2017-01-18T03:28:47.716Z,97.33
2017-01-18T03:29:15.862Z,97.33
2017-01-18T03:29:44.031Z,97.91
2017-01-18T03:30:12.204Z,97.62
2017-01-18T03:30:40.383Z,97.91
2017-01-18T03:31:08.539Z,98.68
2017-01-18T03:31:36.693Z,98.49
2017-01-18T03:32:04.853Z,98.1
2017-01-18T03:32:33.048Z,98.58
2017-01-18T03:33:01.200Z,98.49
2017-01-18T03:33:29.359Z,98.68
2017-01-18T03:33:57.545Z,98.77
2017-01-18T03:34:25.703Z,98.77
2017-01-18T03:34:53.899Z,98.87
2017-01-18T03:35:22.206Z,98.87
2017-01-18T03:35:50.375Z,99.26
2017-01-18T03:36:18.497Z,98.97
2017-01-18T03:36:46.682Z,99.45
2017-01-18T03:37:14.954Z,99.45
2017-01-18T03:37:43.124Z,99.45
2017-01-18T03:38:11.310Z,99.55
2017-01-18T03:38:39.441Z,99.88
2017-01-18T03:39:07.631Z,99.4
2017-01-18T03:39:35.774Z,99.69
2017-01-18T03:40:03.935Z,99.5
2017-01-18T03:40:32.125Z,99.4
2017-01-18T03:41:00.318Z,99.21
2017-01-18T03:41:28.511Z,99.3
2017-01-18T03:41:56.712Z,98.39
2017-01-18T03:42:24.980Z,98.68
2017-01-18T03:42:53.261Z,98.39
2017-01-18T03:43:21.465Z,98.58
2017-01-18T03:43:49.662Z,98.58
2017-01-18T03:44:17.855Z,98.87
2017-01-18T03:44:46.035Z,99.16
2017-01-18T03:45:14.214Z,99.26
2017-01-18T03:45:42.367Z,99.88
2017-01-18T03:46:10.555Z,99.45
2017-01-18T03:46:38.733Z,99.99
2017-01-18T03:47:06.895Z,99.64
2017-01-18T03:47:35.094Z,99.79
2017-01-18T03:48:03.313Z,99.79
2017-01-18T03:48:31.509Z,99.74
2017-01-18T03:48:59.670Z,99.69
2017-01-18T03:49:27.841Z,99.84
2017-01-18T03:49:56.035Z,99.99
2017-01-18T03:50:24.210Z,99.99
2017-01-18T03:50:52.416Z,99.99
2017-01-18T03:51:20.625Z,99.99
2017-01-18T03:51:48.783Z,99.99
2017-01-18T03:52:16.957Z,99.99
2017-01-18T03:52:46.417Z,99.99
2017-01-18T03:53:14.627Z,99.99
2017-01-18T03:53:42.827Z,99.99
2017-01-18T03:54:11.030Z,99.99
2017-01-18T03:54:39.197Z,99.99
2017-01-18T03:55:07.376Z,99.99
2017-01-18T03:55:35.559Z,99.99
2017-01-18T03:56:03.754Z,99.99
2017-01-18T03:56:31.954Z,99.99
2017-01-18T03:57:00.113Z,99.99
2017-01-18T03:57:28.267Z,99.99
2017-01-18T03:57:56.442Z,99.99
2017-01-18T03:58:24.617Z,99.99
2017-01-18T03:58:52.784Z,99.99
2017-01-18T03:59:20.943Z,99.99
2017-01-18T03:59:49.135Z,99.99
2017-01-18T04:00:17.413Z,99.99
2017-01-18T04:00:45.612Z,99.99
2017-01-18T04:01:13.776Z,99.99
2017-01-18T04:01:41.973Z,99.99
2017-01-18T04:02:10.138Z,99.98
2017-01-18T04:02:38.320Z,99.99
2017-01-18T04:03:06.494Z,99.99
2017-01-18T04:03:34.676Z,99.99
2017-01-18T04:04:02.894Z,99.99
2017-01-18T04:04:31.066Z,99.99
2017-01-18T04:04:59.315Z,99.99
2017-01-18T04:05:27.457Z,99.99
2017-01-18T04:05:55.626Z,99.99
2017-01-18T04:06:23.823Z,99.99
2017-01-18T04:06:52.013Z,99.99
2017-01-18T04:07:20.212Z,99.99
2017-01-18T04:07:48.429Z,99.99
2017-01-18T04:08:16.661Z,99.99
2017-01-18T04:08:44.849Z,99.99
2017-01-18T04:09:13.062Z,99.99
2017-01-18T04:09:41.461Z,99.99
2017-01-18T04:10:09.810Z,99.99
2017-01-18T04:10:38.035Z,99.99
2017-01-18T04:11:06.205Z,99.99
2017-01-18T04:11:34.410Z,99.98
2017-01-18T04:12:02.663Z,99.99
2017-01-18T04:12:30.838Z,99.99
2017-01-18T04:12:59.047Z,99.99
2017-01-18T04:13:27.206Z,99.99
2017-01-18T04:13:55.372Z,99.99
2017-01-18T04:14:23.854Z,99.99
2017-01-18T04:14:53.031Z,99.99
2017-01-18T04:15:21.215Z,99.99
2017-01-18T04:15:49.416Z,99.99
2017-01-18T04:16:17.588Z,99.69
2017-01-18T04:16:45.768Z,99.99
2017-01-18T04:17:13.909Z,99.69
2017-01-18T04:17:42.092Z,99.5
2017-01-18T04:18:10.287Z,99.21
2017-01-18T04:18:38.512Z,99.21
2017-01-18T04:19:06.655Z,99.3
2017-01-18T04:19:34.803Z,99.3
2017-01-18T04:20:02.990Z,99.3
2017-01-18T04:20:31.168Z,98.92
2017-01-18T04:20:59.313Z,99.11
2017-01-18T04:21:27.470Z,99.88
2017-01-18T04:21:55.646Z,99.79
2017-01-18T04:22:23.829Z,99.88
2017-01-18T04:22:51.994Z,99.98
2017-01-18T04:23:20.174Z,99.79
2017-01-18T04:23:48.362Z,99.88
2017-01-18T04:24:16.524Z,99.3
2017-01-18T04:24:44.677Z,99.5
2017-01-18T04:25:12.921Z,99.88
2017-01-18T04:25:41.186Z,99.6
2017-01-18T04:26:09.485Z,99.88
2017-01-18T04:26:37.633Z,99.88
2017-01-18T04:27:05.913Z,99.79
2017-01-18T04:27:34.087Z,99.99
2017-01-18T04:28:02.265Z,99.88
2017-01-18T04:28:30.412Z,99.6
2017-01-18T04:28:58.573Z,99.6
2017-01-18T04:29:26.778Z,99.88
2017-01-18T04:29:54.949Z,99.6
2017-01-18T04:30:23.113Z,99.11
2017-01-18T04:30:51.277Z,98.92
2017-01-18T04:31:19.529Z,98.63
2017-01-18T04:31:47.685Z,98.63
2017-01-18T04:32:15.946Z,98.73
2017-01-18T04:32:44.121Z,98.63
2017-01-18T04:33:12.269Z,98.63
2017-01-18T04:33:40.439Z,99.02
2017-01-18T04:34:08.752Z,99.11
2017-01-18T04:34:37.382Z,99.11
2017-01-18T04:35:05.576Z,99.11
2017-01-18T04:35:33.744Z,99.21
2017-01-18T04:36:01.914Z,98.92
2017-01-18T04:36:30.065Z,98.63
2017-01-18T04:36:58.251Z,98.05
2017-01-18T04:37:26.404Z,98.25
2017-01-18T04:37:54.571Z,98.44
2017-01-18T04:38:22.831Z,98.73
2017-01-18T04:38:51.019Z,99.5
2017-01-18T04:39:19.192Z,99.02
2017-01-18T04:39:47.335Z,97.96
2017-01-18T04:40:15.495Z,98.54
2017-01-18T04:40:43.654Z,99.21
2017-01-18T04:41:11.835Z,99.02
2017-01-18T04:41:40.005Z,99.88
2017-01-18T04:42:08.199Z,99.3
2017-01-18T04:42:36.378Z,98.82
2017-01-18T04:43:04.543Z,99.11
2017-01-18T04:43:32.796Z,99.02
2017-01-18T04:44:00.959Z,99.21
2017-01-18T04:44:29.146Z,99.3
2017-01-18T04:44:57.369Z,99.3
2017-01-18T04:45:25.618Z,99.6
2017-01-18T04:45:53.791Z,99.11
2017-01-18T04:46:21.975Z,99.11
2017-01-18T04:46:50.156Z,99.21
2017-01-18T04:47:18.325Z,99.5
2017-01-18T04:47:46.503Z,99.11
2017-01-18T04:48:14.664Z,98.73
2017-01-18T04:48:42.837Z,98.54
2017-01-18T04:49:13.375Z,99.4
2017-01-18T04:49:41.664Z,99.21
2017-01-18T04:50:09.856Z,99.3
2017-01-18T04:50:38.022Z,99.3
2017-01-18T04:51:06.317Z,98.92
2017-01-18T04:51:34.515Z,99.02
2017-01-18T04:52:02.697Z,98.63
2017-01-18T04:52:30.873Z,99.11
2017-01-18T04:52:59.040Z,98.73
2017-01-18T04:53:27.225Z,98.63
2017-01-18T04:53:55.393Z,98.92
2017-01-18T04:54:23.672Z,98.34
2017-01-18T04:54:51.821Z,98.63
2017-01-18T04:55:19.996Z,98.73
2017-01-18T04:55:48.318Z,98.92
2017-01-18T04:56:16.497Z,99.5
2017-01-18T04:56:44.646Z,99.3
2017-01-18T04:57:12.825Z,99.69
2017-01-18T04:57:40.994Z,98.63
2017-01-18T04:58:09.170Z,98.44
2017-01-18T04:58:37.350Z,98.25
2017-01-18T04:59:05.509Z,98.44
2017-01-18T04:59:33.671Z,98.34
2017-01-18T05:00:01.859Z,98.05
2017-01-18T05:00:29.995Z,97.67
2017-01-18T05:00:58.148Z,98.05
2017-01-18T05:01:26.318Z,98.73
2017-01-18T05:01:54.465Z,98.77
2017-01-18T05:02:22.668Z,97.86
2017-01-18T05:02:50.901Z,98.2
2017-01-18T05:03:19.078Z,98.49
2017-01-18T05:03:47.243Z,98.77
2017-01-18T05:04:15.436Z,98.68
2017-01-18T05:04:43.716Z,98.68
2017-01-18T05:05:11.854Z,98.77
2017-01-18T05:05:40.007Z,99.26
2017-01-18T05:06:08.173Z,98.77
2017-01-18T05:06:36.384Z,99.26
2017-01-18T05:07:04.536Z,99.84
2017-01-18T05:07:32.824Z,99.84
2017-01-18T05:08:01.127Z,99.74
2017-01-18T05:08:29.292Z,99.74
2017-01-18T05:08:57.446Z,99.84
2017-01-18T05:09:25.643Z,99.84
2017-01-18T05:09:53.911Z,99.45
2017-01-18T05:10:22.096Z,99.35
2017-01-18T05:10:50.242Z,99.99
2017-01-18T05:11:18.448Z,99.79
2017-01-18T05:11:46.619Z,99.99
2017-01-18T05:12:14.783Z,99.99
2017-01-18T05:12:42.969Z,99.99
2017-01-18T05:13:11.150Z,99.99
2017-01-18T05:13:39.333Z,99.99
2017-01-18T05:14:07.582Z,99.99
2017-01-18T05:14:35.735Z,99.99
2017-01-18T05:15:03.984Z,99.99
2017-01-18T05:15:32.144Z,99.99
2017-01-18T05:16:00.322Z,99.99
2017-01-18T05:16:28.498Z,99.99
2017-01-18T05:16:56.665Z,99.45
2017-01-18T05:17:24.845Z,99.88
2017-01-18T05:17:52.984Z,99.99
2017-01-18T05:18:21.187Z,99.69
2017-01-18T05:18:49.346Z,99.88
2017-01-18T05:19:17.527Z,99.99
2017-01-18T05:19:45.712Z,99.99
2017-01-18T05:20:13.898Z,99.99
2017-01-18T05:20:42.072Z,99.99
2017-01-18T05:21:10.230Z,99.79
2017-01-18T05:21:38.417Z,99.88
2017-01-18T05:22:06.647Z,99.79
2017-01-18T05:22:34.822Z,99.69
2017-01-18T05:23:02.976Z,99.79
2017-01-18T05:23:31.226Z,99.79
2017-01-18T05:23:59.393Z,99.79
2017-01-18T05:24:27.587Z,99.88
2017-01-18T05:24:55.757Z,99.99
2017-01-18T05:25:24.024Z,99.69
2017-01-18T05:25:52.200Z,99.99
2017-01-18T05:26:20.359Z,99.69
2017-01-18T05:26:48.543Z,99.99
2017-01-18T05:27:16.731Z,99.99
2017-01-18T05:27:44.914Z,99.99
2017-01-18T05:28:13.076Z,99.5
2017-01-18T05:28:41.219Z,99.21
2017-01-18T05:29:09.418Z,99.11
2017-01-18T05:29:37.617Z,99.98
2017-01-18T05:30:05.882Z,99.99
2017-01-18T05:30:34.053Z,99.02
2017-01-18T05:31:02.245Z,98.82
2017-01-18T05:31:30.396Z,98.92
2017-01-18T05:31:58.589Z,98.73
2017-01-18T05:32:26.848Z,98.73
2017-01-18T05:32:54.987Z,99.21
2017-01-18T05:33:23.160Z,99.21
2017-01-18T05:33:51.399Z,99.79
2017-01-18T05:34:19.613Z,99.21
2017-01-18T05:34:47.775Z,98.92
2017-01-18T05:35:15.950Z,98.92
2017-01-18T05:35:44.127Z,99.3
2017-01-18T05:36:12.313Z,99.88
2017-01-18T05:36:40.456Z,99.99
2017-01-18T05:37:08.615Z,99.88
2017-01-18T05:37:36.793Z,99.5
2017-01-18T05:38:04.969Z,99.99
2017-01-18T05:38:33.129Z,99.99
2017-01-18T05:39:01.316Z,99.99
2017-01-18T05:39:29.474Z,99.99
2017-01-18T05:39:57.718Z,99.99
2017-01-18T05:40:25.885Z,99.99
2017-01-18T05:40:54.156Z,99.99
2017-01-18T05:41:22.335Z,99.99
2017-01-18T05:41:50.519Z,99.99
2017-01-18T05:42:18.690Z,99.99
2017-01-18T05:42:46.859Z,99.99
2017-01-18T05:43:15.018Z,99.99
2017-01-18T05:43:43.289Z,99.99
2017-01-18T05:44:11.464Z,99.99
2017-01-18T05:44:39.633Z,99.99
2017-01-18T05:45:07.813Z,99.99
2017-01-18T05:45:35.993Z,99.84
2017-01-18T05:46:04.157Z,99.55
2017-01-18T05:46:32.332Z,99.74
2017-01-18T05:47:00.577Z,99.6
2017-01-18T05:47:28.818Z,99.99
2017-01-18T05:47:57.178Z,99.99
2017-01-18T05:48:25.364Z,99.99
2017-01-18T05:48:53.539Z,99.99
2017-01-18T05:49:21.730Z,99.99
2017-01-18T05:49:49.972Z,99.99
2017-01-18T05:50:18.242Z,99.99
2017-01-18T05:50:46.400Z,99.99
2017-01-18T05:51:14.572Z,99.99
2017-01-18T05:51:42.760Z,99.99
2017-01-18T05:52:10.968Z,99.99
2017-01-18T05:52:39.134Z,99.99
2017-01-18T05:53:07.421Z,99.99
2017-01-18T05:53:35.578Z,99.99
2017-01-18T05:54:03.795Z,99.99
2017-01-18T05:54:31.947Z,99.99
2017-01-18T05:55:00.105Z,99.99
2017-01-18T05:55:28.284Z,99.99
2017-01-18T05:55:56.460Z,99.99
2017-01-18T05:56:24.634Z,99.99
2017-01-18T05:56:52.805Z,99.99
2017-01-18T05:57:20.987Z,99.99
2017-01-18T05:57:49.150Z,99.99
2017-01-18T05:58:17.302Z,99.99
2017-01-18T05:58:45.477Z,99.65
2017-01-18T05:59:13.659Z,99.99
2017-01-18T05:59:41.829Z,99.99
2017-01-18T06:00:09.978Z,99.99
2017-01-18T06:00:38.145Z,99.93
2017-01-18T06:01:06.318Z,99.99
2017-01-18T06:01:34.505Z,99.99
2017-01-18T06:02:02.636Z,99.74
2017-01-18T06:02:30.905Z,99.99
2017-01-18T06:02:59.101Z,99.74
2017-01-18T06:03:27.359Z,99.74
2017-01-18T06:03:55.554Z,99.55
2017-01-18T06:04:23.854Z,99.93
2017-01-18T06:04:52.139Z,99.65